Time;durP1;ratioP1;P1;durP2;ratioP2;P2;SDS_P1;SDS_P2;PMS_P1;PMS_P2;Temp;Humidity;BMP_temperature;BMP_pressure;BME280_temperature;BME280_humidity;BME280_pressure;Samples;Min_cycle;Max_cycle;Signal;HPM_P1;HPM_P2
2021/03/14 00:01:11;;;;;;;8.75;2.35;;;5.60;99.90;;;;;;4845215;29;20197;-77
2021/03/14 00:03:38;;;;;;;5.63;1.98;;;5.60;99.90;;;;;;4872834;29;20229;-78
2021/03/14 00:06:04;;;;;;;7.80;2.55;;;5.60;99.90;;;;;;4861434;29;20230;-77
2021/03/14 00:08:31;;;;;;;4.63;2.30;;;5.60;99.90;;;;;;4861225;29;20279;-78
2021/03/14 00:11:01;;;;;;;4.47;1.95;;;5.60;99.90;;;;;;4875488;29;20193;-78
2021/03/14 00:13:33;;;;;;;4.35;1.73;;;5.60;99.90;;;;;;4877933;29;20289;-77
2021/03/14 00:16:01;;;;;;;8.20;2.45;;;5.60;99.90;;;;;;4878797;29;20221;-77
2021/03/14 00:18:30;;;;;;;6.45;2.55;;;5.60;99.90;;;;;;4878457;29;20218;-77
2021/03/14 00:20:58;;;;;;;4.82;1.80;;;5.60;99.90;;;;;;4867498;29;20191;-77
2021/03/14 00:23:25;;;;;;;3.53;1.90;;;5.60;99.90;;;;;;4845223;29;20219;-78
2021/03/14 00:25:55;;;;;;;3.75;1.77;;;5.60;99.90;;;;;;4855110;29;20215;-77
2021/03/14 00:28:23;;;;;;;5.28;1.75;;;5.60;99.90;;;;;;4864591;29;20305;-77
2021/03/14 00:30:50;;;;;;;3.30;1.40;;;5.60;99.90;;;;;;4847815;29;20202;-78
2021/03/14 00:33:17;;;;;;;5.78;1.85;;;5.60;99.90;;;;;;4867488;29;20222;-77
2021/03/14 00:35:44;;;;;;;2.33;1.52;;;5.60;99.90;;;;;;4860934;29;20287;-77
2021/03/14 00:38:11;;;;;;;12.07;1.50;;;5.60;99.90;;;;;;4869737;29;20230;-77
2021/03/14 00:40:38;;;;;;;3.30;1.65;;;5.70;99.90;;;;;;4866316;29;20259;-77
2021/03/14 00:43:06;;;;;;;4.00;1.60;;;5.70;99.90;;;;;;4868673;29;20315;-77
2021/03/14 00:45:38;;;;;;;6.75;1.60;;;5.70;99.90;;;;;;4874019;29;20585;-78
2021/03/14 00:48:25;;;;;;;3.05;1.15;;;5.70;99.90;;;;;;4865384;29;20254;-77
2021/03/14 00:50:51;;;;;;;4.43;1.38;;;5.70;99.90;;;;;;4860080;29;20195;-77
2021/03/14 00:53:28;;;;;;;1.92;1.08;;;5.70;99.90;;;;;;4860076;29;20322;-77
2021/03/14 00:55:56;;;;;;;5.07;1.08;;;5.70;99.90;;;;;;4874505;29;20221;-77
2021/03/14 00:58:22;;;;;;;3.20;1.20;;;5.70;99.90;;;;;;4872526;29;20258;-77
2021/03/14 01:00:49;;;;;;;3.92;1.50;;;5.70;99.90;;;;;;4861398;29;20194;-77
2021/03/14 01:03:15;;;;;;;1.95;0.85;;;5.70;99.90;;;;;;4868782;29;20618;-77
2021/03/14 01:05:43;;;;;;;4.00;0.90;;;5.70;99.90;;;;;;4874296;29;20207;-77
2021/03/14 01:08:19;;;;;;;3.03;1.50;;;5.70;99.90;;;;;;4876939;29;20226;-77
2021/03/14 01:10:46;;;;;;;2.53;0.68;;;5.70;99.90;;;;;;4878481;29;20269;-77
2021/03/14 01:13:24;;;;;;;1.23;1.13;;;5.70;99.90;;;;;;4851623;29;20399;-77
2021/03/14 01:15:51;;;;;;;1.52;0.98;;;5.70;99.90;;;;;;4864788;29;20301;-77
2021/03/14 01:18:18;;;;;;;1.55;1.00;;;5.70;99.90;;;;;;4878516;29;20240;-76
2021/03/14 01:20:44;;;;;;;4.00;0.70;;;5.70;99.90;;;;;;4852081;29;20213;-77
2021/03/14 01:23:11;;;;;;;2.70;0.90;;;5.70;99.90;;;;;;4876780;29;20800;-77
2021/03/14 01:25:37;;;;;;;2.00;1.30;;;5.70;99.90;;;;;;4872754;29;20211;-77
2021/03/14 01:28:05;;;;;;;2.35;1.20;;;5.60;99.90;;;;;;4860626;29;20227;-77
2021/03/14 01:30:31;;;;;;;2.10;0.90;;;5.70;99.90;;;;;;4844298;29;20184;-77
2021/03/14 01:32:58;;;;;;;2.45;1.05;;;5.70;99.90;;;;;;4860823;29;20227;-77
2021/03/14 01:35:24;;;;;;;2.83;1.02;;;5.70;99.90;;;;;;4866563;29;20214;-77
2021/03/14 01:37:51;;;;;;;2.55;1.25;;;5.60;99.90;;;;;;4866479;29;20223;-77
2021/03/14 01:40:18;;;;;;;3.08;0.90;;;5.60;99.90;;;;;;4866011;29;20286;-77
2021/03/14 01:42:46;;;;;;;6.05;1.60;;;5.60;99.90;;;;;;4873432;29;20560;-77
2021/03/14 01:45:13;;;;;;;3.50;1.25;;;5.60;99.90;;;;;;4846766;29;20693;-77
2021/03/14 01:47:42;;;;;;;5.43;1.45;;;5.60;99.90;;;;;;4861112;29;20253;-77
2021/03/14 01:50:23;;;;;;;3.83;1.65;;;5.50;99.90;;;;;;4878187;29;20210;-77
2021/03/14 01:52:52;;;;;;;2.33;1.40;;;5.60;99.90;;;;;;4861735;29;20226;-77
2021/03/14 01:55:20;;;;;;;3.47;2.08;;;5.60;99.90;;;;;;4858893;29;20272;-76
2021/03/14 01:57:47;;;;;;;2.55;2.08;;;5.60;99.90;;;;;;4845872;29;20226;-77
2021/03/14 02:00:17;;;;;;;2.92;1.77;;;5.60;99.90;;;;;;4861338;29;20208;-77
2021/03/14 02:02:44;;;;;;;3.63;1.77;;;5.60;99.90;;;;;;4863594;29;20571;-77
2021/03/14 02:05:13;;;;;;;4.05;1.92;;;5.60;99.90;;;;;;4849657;29;20297;-77
2021/03/14 02:07:42;;;;;;;4.97;1.90;;;5.60;99.90;;;;;;4858942;29;20231;-77
2021/03/14 02:10:11;;;;;;;1.67;1.40;;;5.60;99.90;;;;;;4862195;29;20647;-77
2021/03/14 02:12:47;;;;;;;4.53;2.28;;;5.60;99.90;;;;;;4865050;29;20219;-77
2021/03/14 02:15:15;;;;;;;2.95;2.00;;;5.60;99.90;;;;;;4863006;29;20207;-78
2021/03/14 02:17:42;;;;;;;2.47;2.17;;;5.70;99.90;;;;;;4860357;29;20684;-78
2021/03/14 02:20:09;;;;;;;9.13;2.50;;;5.70;99.90;;;;;;4868136;29;20187;-78
2021/03/14 02:22:38;;;;;;;10.00;2.70;;;5.60;99.90;;;;;;4873464;29;20206;-78
2021/03/14 02:25:11;;;;;;;7.70;2.75;;;5.50;99.90;;;;;;4864348;29;20698;-78
2021/03/14 02:27:41;;;;;;;5.68;2.90;;;5.50;99.90;;;;;;4876570;29;20218;-78
2021/03/14 02:30:10;;;;;;;3.75;2.17;;;5.50;99.90;;;;;;4868606;29;20194;-78
2021/03/14 02:32:37;;;;;;;9.93;3.35;;;5.60;99.90;;;;;;4869340;29;20638;-78
2021/03/14 02:35:05;;;;;;;6.68;2.88;;;5.50;99.90;;;;;;4860441;29;20211;-78
2021/03/14 02:37:33;;;;;;;5.78;3.78;;;5.50;99.90;;;;;;4861702;29;20258;-77
2021/03/14 02:40:00;;;;;;;3.55;3.17;;;5.50;99.90;;;;;;4879116;29;20198;-77
2021/03/14 02:42:29;;;;;;;8.50;4.07;;;5.40;99.90;;;;;;4868384;29;20219;-77
2021/03/14 02:44:57;;;;;;;4.65;3.85;;;5.40;99.90;;;;;;4863165;29;20215;-77
2021/03/14 02:47:25;;;;;;;7.53;4.22;;;5.40;99.90;;;;;;4866033;29;20232;-77
2021/03/14 02:50:23;;;;;;;7.90;4.13;;;5.40;99.90;;;;;;4868104;29;20203;-77
2021/03/14 02:52:50;;;;;;;8.05;4.15;;;5.30;99.90;;;;;;4870226;29;20227;-77
2021/03/14 02:55:21;;;;;;;14.45;5.32;;;5.30;99.90;;;;;;4864722;29;20555;-77
2021/03/14 02:57:49;;;;;;;9.48;5.70;;;5.30;99.90;;;;;;4873317;29;20218;-77
2021/03/14 03:00:20;;;;;;;7.78;5.20;;;5.20;99.90;;;;;;4880787;29;20183;-77
2021/03/14 03:02:50;;;;;;;6.85;5.65;;;5.20;99.90;;;;;;4861311;29;20226;-77
2021/03/14 03:05:19;;;;;;;6.00;4.35;;;5.20;99.90;;;;;;4865902;29;20214;-77
2021/03/14 03:07:52;;;;;;;7.82;5.40;;;5.20;99.90;;;;;;4867972;29;20225;-77
2021/03/14 03:10:20;;;;;;;13.40;6.00;;;5.20;99.90;;;;;;4861210;29;20662;-77
2021/03/14 03:12:48;;;;;;;5.60;4.90;;;5.20;99.90;;;;;;4869039;29;20218;-75
2021/03/14 03:15:18;;;;;;;9.77;5.30;;;5.20;99.90;;;;;;4857954;29;20212;-77
2021/03/14 03:17:46;;;;;;;10.68;5.15;;;5.20;99.90;;;;;;4863187;29;20619;-77
2021/03/14 03:20:24;;;;;;;5.82;4.32;;;5.20;99.90;;;;;;4862105;29;20220;-77
2021/03/14 03:22:51;;;;;;;5.90;3.65;;;5.20;99.90;;;;;;4867665;29;20227;-77
2021/03/14 03:25:18;;;;;;;8.65;5.05;;;5.20;99.90;;;;;;4879354;29;20218;-77
2021/03/14 03:27:45;;;;;;;9.05;5.05;;;5.20;99.90;;;;;;4866884;29;20226;-77
2021/03/14 03:30:14;;;;;;;5.57;3.30;;;5.20;99.90;;;;;;4855921;29;20206;-77
2021/03/14 03:32:45;;;;;;;4.45;3.30;;;5.20;99.90;;;;;;4871699;29;20246;-77
2021/03/14 03:35:13;;;;;;;8.60;3.60;;;5.10;99.90;;;;;;4846680;29;20213;-77
2021/03/14 03:37:40;;;;;;;8.43;3.80;;;5.10;99.90;;;;;;4864026;29;20593;-77
2021/03/14 03:40:11;;;;;;;7.50;3.40;;;5.10;99.90;;;;;;4875811;29;20590;-77
2021/03/14 03:43:04;;;;;;;5.15;3.22;;;5.10;99.90;;;;;;4874327;29;20294;-77
2021/03/14 03:45:33;;;;;;;5.65;3.45;;;5.10;99.90;;;;;;4851202;29;20275;-77
2021/03/14 03:48:01;;;;;;;4.75;2.85;;;5.10;99.90;;;;;;4861767;29;20235;-77
2021/03/14 03:50:49;;;;;;;6.13;3.35;;;5.10;99.90;;;;;;4865212;29;20262;-77
2021/03/14 03:53:18;;;;;;;7.93;3.90;;;5.10;99.90;;;;;;4877468;29;20222;-77
2021/03/14 03:55:45;;;;;;;6.20;3.80;;;5.10;99.90;;;;;;4864855;29;20211;-77
2021/03/14 03:58:13;;;;;;;5.93;3.67;;;5.10;99.90;;;;;;4868753;29;20250;-77
2021/03/14 04:00:40;;;;;;;4.18;3.25;;;5.10;99.90;;;;;;4869168;29;20194;-77
2021/03/14 04:03:08;;;;;;;7.28;3.30;;;5.10;99.90;;;;;;4868561;29;20233;-77
2021/03/14 04:05:35;;;;;;;5.63;3.47;;;5.00;99.90;;;;;;4840280;29;20215;-77
2021/03/14 04:08:02;;;;;;;7.40;3.75;;;5.10;99.90;;;;;;4869662;29;20226;-77
2021/03/14 04:10:29;;;;;;;6.30;3.92;;;5.10;99.90;;;;;;4874294;29;20247;-77
2021/03/14 04:12:58;;;;;;;11.65;4.10;;;5.10;99.90;;;;;;4868571;29;20684;-77
2021/03/14 04:15:27;;;;;;;5.78;3.50;;;5.00;99.90;;;;;;4868211;29;20211;-77
2021/03/14 04:17:55;;;;;;;5.18;4.00;;;5.00;99.90;;;;;;4875458;29;20246;-77
2021/03/14 04:20:29;;;;;;;5.88;3.92;;;5.10;99.90;;;;;;4862803;29;20227;-77
2021/03/14 04:23:00;;;;;;;3.97;3.25;;;5.00;99.90;;;;;;4861322;29;20257;-77
2021/03/14 04:25:27;;;;;;;7.88;3.22;;;5.00;99.90;;;;;;4879987;29;20203;-77
2021/03/14 04:27:57;;;;;;;6.95;4.25;;;5.00;99.90;;;;;;4865070;29;20626;-77
2021/03/14 04:30:25;;;;;;;8.10;3.25;;;4.90;99.90;;;;;;4872545;29;20191;-77
2021/03/14 04:32:53;;;;;;;7.25;3.17;;;5.00;99.90;;;;;;4869591;29;20218;-76
2021/03/14 04:35:21;;;;;;;7.45;2.83;;;4.90;99.90;;;;;;4862218;29;20757;-77
2021/03/14 04:37:49;;;;;;;4.88;3.45;;;4.90;99.90;;;;;;4866654;29;20210;-77
2021/03/14 04:40:16;;;;;;;6.78;4.80;;;4.90;99.90;;;;;;4860336;29;20198;-77
2021/03/14 04:42:47;;;;;;;6.13;3.90;;;4.80;99.90;;;;;;4866456;29;20271;-77
2021/03/14 04:45:14;;;;;;;6.43;4.00;;;4.80;99.90;;;;;;4870961;29;20214;-77
2021/03/14 04:47:41;;;;;;;8.93;4.45;;;4.90;99.90;;;;;;4877279;29;20305;-77
2021/03/14 04:50:13;;;;;;;7.55;4.30;;;4.90;99.90;;;;;;4861717;29;20242;-77
2021/03/14 04:52:44;;;;;;;9.73;4.55;;;4.80;99.90;;;;;;4865988;29;20229;-77
2021/03/14 04:55:13;;;;;;;8.00;4.18;;;4.90;99.90;;;;;;4878773;29;20633;-77
2021/03/14 04:57:41;;;;;;;9.65;5.15;;;4.90;99.90;;;;;;4876389;29;20267;-77
2021/03/14 05:00:13;;;;;;;18.08;5.30;;;4.80;99.90;;;;;;4876593;29;20198;-77
2021/03/14 05:02:44;;;;;;;15.60;5.97;;;4.90;99.90;;;;;;4864813;29;20620;-77
2021/03/14 05:05:13;;;;;;;9.90;5.38;;;4.90;99.90;;;;;;4875086;29;20211;-77
2021/03/14 05:07:44;;;;;;;11.68;5.75;;;4.90;99.90;;;;;;4872895;29;20249;-77
2021/03/14 05:10:22;;;;;;;10.40;6.65;;;4.90;99.90;;;;;;4872211;29;20247;-77
2021/03/14 05:12:50;;;;;;;14.52;5.82;;;4.90;99.90;;;;;;4867026;29;20226;-77
2021/03/14 05:15:19;;;;;;;7.40;4.90;;;4.90;99.90;;;;;;4875858;29;20211;-77
2021/03/14 05:17:47;;;;;;;11.63;5.70;;;4.90;99.90;;;;;;4859691;29;20215;-77
2021/03/14 05:20:17;;;;;;;9.80;7.07;;;4.90;99.90;;;;;;4867237;29;20207;-77
2021/03/14 05:22:45;;;;;;;11.30;6.20;;;4.90;99.90;;;;;;4854835;29;20230;-77
2021/03/14 05:25:22;;;;;;;7.00;5.00;;;4.90;99.90;;;;;;4878687;29;20218;-76
2021/03/14 05:27:52;;;;;;;7.65;4.90;;;4.90;99.90;;;;;;4864851;29;20285;-77
2021/03/14 05:30:23;;;;;;;13.27;5.70;;;4.90;99.90;;;;;;4858260;29;20197;-77
2021/03/14 05:32:55;;;;;;;10.05;4.93;;;4.90;99.90;;;;;;4843162;29;20223;-77
2021/03/14 05:35:27;;;;;;;9.80;4.15;;;4.90;99.90;;;;;;4850956;29;20237;-77
2021/03/14 05:37:55;;;;;;;8.10;5.15;;;4.90;99.90;;;;;;4872584;29;20226;-77
2021/03/14 05:40:25;;;;;;;12.68;5.43;;;4.90;99.90;;;;;;4860928;29;20207;-77
2021/03/14 05:42:52;;;;;;;13.63;5.55;;;4.90;99.90;;;;;;4867935;29;20219;-77
2021/03/14 05:45:20;;;;;;;8.52;4.57;;;5.00;99.90;;;;;;4878087;29;20198;-77
2021/03/14 05:47:46;;;;;;;10.63;5.32;;;4.90;99.90;;;;;;4867628;29;20219;-77
2021/03/14 05:50:29;;;;;;;13.85;6.40;;;4.90;99.90;;;;;;4837645;29;20273;-77
2021/03/14 05:52:56;;;;;;;12.73;5.43;;;4.80;99.90;;;;;;4857963;29;20229;-77
2021/03/14 05:55:25;;;;;;;11.52;5.60;;;4.90;99.90;;;;;;4854588;29;20297;-77
2021/03/14 05:57:54;;;;;;;9.73;5.60;;;4.80;99.90;;;;;;4852915;29;20215;-77
2021/03/14 06:00:28;;;;;;;7.80;5.70;;;4.90;99.90;;;;;;4866011;29;20659;-77
2021/03/14 06:03:01;;;;;;;7.47;6.13;;;4.80;99.90;;;;;;4857459;29;20456;-77
2021/03/14 06:05:30;;;;;;;8.88;6.63;;;4.80;99.90;;;;;;4863540;29;20230;-77
2021/03/14 06:07:58;;;;;;;6.88;4.55;;;4.80;99.90;;;;;;4858980;29;20226;-77
2021/03/14 06:10:25;;;;;;;7.80;5.28;;;4.80;99.90;;;;;;4861081;29;20649;-77
2021/03/14 06:12:52;;;;;;;7.78;5.63;;;4.80;99.90;;;;;;4866276;29;20218;-77
2021/03/14 06:15:19;;;;;;;6.25;5.22;;;4.90;99.90;;;;;;4870182;29;20322;-77
2021/03/14 06:17:46;;;;;;;9.23;5.57;;;4.90;99.90;;;;;;4866522;29;20211;-77
2021/03/14 06:20:33;;;;;;;8.48;6.43;;;4.90;99.90;;;;;;4859593;29;20187;-77
2021/03/14 06:23:11;;;;;;;8.02;5.05;;;4.90;99.90;;;;;;4847264;29;20223;-77
2021/03/14 06:25:41;;;;;;;6.75;4.65;;;4.90;99.90;;;;;;4857963;29;20219;-77
2021/03/14 06:28:09;;;;;;;7.03;4.95;;;5.00;99.90;;;;;;4850607;29;20227;-77
2021/03/14 06:30:37;;;;;;;8.65;6.07;;;5.00;99.90;;;;;;4870859;29;20194;-77
2021/03/14 06:33:15;;;;;;;7.72;4.72;;;5.00;99.90;;;;;;4859106;29;20221;-77
2021/03/14 06:35:42;;;;;;;8.85;4.80;;;5.00;99.90;;;;;;4868814;29;20203;-77
2021/03/14 06:38:19;;;;;;;7.55;5.00;;;5.10;99.90;;;;;;4859075;29;20226;-77
2021/03/14 06:40:46;;;;;;;5.28;4.55;;;5.10;99.90;;;;;;4843003;29;20198;-77
2021/03/14 06:43:15;;;;;;;8.82;5.50;;;5.10;99.90;;;;;;4850395;29;20227;-76
2021/03/14 06:45:45;;;;;;;9.73;4.55;;;5.10;99.90;;;;;;4874246;29;20206;-76
2021/03/14 06:48:11;;;;;;;10.90;5.53;;;5.10;99.90;;;;;;4859991;29;20219;-77
2021/03/14 06:50:41;;;;;;;8.40;5.18;;;5.10;99.90;;;;;;4859921;29;20192;-77
2021/03/14 06:53:13;;;;;;;6.20;4.72;;;5.20;99.90;;;;;;4859789;29;20219;-77
2021/03/14 06:55:41;;;;;;;7.53;5.22;;;5.20;99.90;;;;;;4858757;29;20286;-77
2021/03/14 06:58:31;;;;;;;9.48;5.00;;;5.30;99.90;;;;;;4850391;29;20226;-77
2021/03/14 07:01:16;;;;;;;11.05;4.78;;;5.30;99.90;;;;;;4863315;29;20666;-77
2021/03/14 07:03:47;;;;;;;10.00;4.78;;;5.30;99.90;;;;;;4859731;29;20282;-77
2021/03/14 07:06:22;;;;;;;9.80;4.88;;;5.40;99.90;;;;;;4860278;29;20195;-77
2021/03/14 07:08:56;;;;;;;10.32;5.57;;;5.40;99.90;;;;;;4870720;29;20219;-77
2021/03/14 07:11:39;;;;;;;12.82;5.55;;;5.40;99.90;;;;;;4858544;29;20183;-77
2021/03/14 07:14:10;;;;;;;12.35;4.00;;;5.40;99.90;;;;;;4874839;29;20713;-77
2021/03/14 07:16:45;;;;;;;7.03;4.88;;;5.40;99.90;;;;;;4845875;29;20750;-77
2021/03/14 07:19:25;;;;;;;7.68;4.15;;;5.50;99.90;;;;;;4860197;29;20199;-77
2021/03/14 07:22:07;;;;;;;5.78;4.15;;;5.50;99.90;;;;;;4870496;29;20231;-77
2021/03/14 07:24:43;;;;;;;11.35;4.47;;;5.50;99.90;;;;;;4876145;29;20225;-77
2021/03/14 07:27:12;;;;;;;10.80;4.85;;;5.50;99.90;;;;;;4877916;29;20229;-77
2021/03/14 07:29:39;;;;;;;6.47;3.70;;;5.60;99.90;;;;;;4863429;29;20226;-77
2021/03/14 07:32:09;;;;;;;9.02;4.05;;;5.60;99.90;;;;;;4869919;29;20223;-77
2021/03/14 07:34:36;;;;;;;7.03;4.65;;;5.70;99.90;;;;;;4862122;29;20207;-77
2021/03/14 07:37:03;;;;;;;11.07;4.60;;;5.70;99.90;;;;;;4862427;29;20689;-77
2021/03/14 07:39:30;;;;;;;11.27;5.50;;;5.70;99.90;;;;;;4867586;29;20259;-77
2021/03/14 07:41:57;;;;;;;6.68;4.85;;;5.70;99.90;;;;;;4860065;29;20233;-77
2021/03/14 07:44:25;;;;;;;12.50;4.30;;;5.80;99.90;;;;;;4861065;29;20223;-77
2021/03/14 07:46:53;;;;;;;6.78;3.78;;;5.80;99.90;;;;;;4871365;29;20218;-77
2021/03/14 07:49:23;;;;;;;6.93;4.47;;;5.90;99.90;;;;;;4871597;29;20199;-77
2021/03/14 07:51:57;;;;;;;8.50;4.85;;;5.90;99.90;;;;;;4852838;29;20710;-77
2021/03/14 07:54:35;;;;;;;10.77;5.55;;;5.90;99.90;;;;;;4874522;29;20216;-76
2021/03/14 07:57:02;;;;;;;9.20;5.47;;;5.90;99.90;;;;;;4869493;29;20223;-77
2021/03/14 07:59:33;;;;;;;9.13;5.32;;;5.90;99.90;;;;;;4845513;29;20183;-77
2021/03/14 08:02:21;;;;;;;7.53;4.60;;;5.90;99.90;;;;;;4861374;29;20306;-77
2021/03/14 08:04:52;;;;;;;9.23;5.30;;;5.90;99.90;;;;;;4861850;29;20332;-77
2021/03/14 08:07:48;;;;;;;6.80;4.78;;;5.90;99.90;;;;;;4860973;29;20231;-77
2021/03/14 08:10:45;;;;;;;10.20;4.88;;;5.90;99.90;;;;;;4856187;29;20239;-76
2021/03/14 08:13:17;;;;;;;8.10;5.60;;;5.90;99.90;;;;;;4862037;29;20223;-76
2021/03/14 08:15:58;;;;;;;9.10;6.00;;;5.90;99.90;;;;;;4844774;29;20215;-76
2021/03/14 08:18:46;;;;;;;10.95;5.80;;;5.90;99.90;;;;;;4844882;29;20230;-77
2021/03/14 08:21:22;;;;;;;9.27;5.38;;;5.90;99.90;;;;;;4861630;29;20211;-76
2021/03/14 08:24:12;;;;;;;6.72;4.72;;;5.90;99.90;;;;;;4871180;29;20226;-76
2021/03/14 08:26:39;;;;;;;12.63;5.20;;;5.90;99.90;;;;;;4861675;29;20282;-76
2021/03/14 08:29:14;;;;;;;10.95;5.60;;;5.90;99.90;;;;;;4862595;29;20230;-77
2021/03/14 08:31:51;;;;;;;14.75;8.07;;;5.90;99.90;;;;;;4879218;29;20249;-76
2021/03/14 08:34:29;;;;;;;9.10;6.22;;;5.90;99.90;;;;;;4859691;29;20210;-76
2021/03/14 08:36:58;;;;;;;7.57;5.40;;;5.90;99.90;;;;;;4862498;29;20614;-76
2021/03/14 08:40:05;;;;;;;7.43;5.13;;;5.90;99.90;;;;;;4874615;29;20300;-76
2021/03/14 08:42:55;;;;;;;9.30;5.00;;;6.00;99.90;;;;;;4869775;29;20231;-76
2021/03/14 08:45:47;;;;;;;6.80;4.85;;;6.00;99.90;;;;;;4857978;29;20222;-76
2021/03/14 08:48:27;;;;;;;10.18;5.45;;;5.90;99.90;;;;;;4860704;29;20586;-76
2021/03/14 08:50:55;;;;;;;6.63;4.45;;;5.90;99.90;;;;;;4863010;29;20290;-76
2021/03/14 08:53:27;;;;;;;8.10;4.82;;;6.00;99.90;;;;;;4863232;29;20225;-76
2021/03/14 08:56:06;;;;;;;12.23;5.18;;;6.00;99.90;;;;;;4847182;29;20665;-76
2021/03/14 08:58:39;;;;;;;4.40;3.65;;;6.00;99.90;;;;;;4849952;29;20860;-76
2021/03/14 09:01:14;;;;;;;4.53;3.08;;;6.00;99.90;;;;;;4865337;29;20194;-76
2021/03/14 09:04:14;;;;;;;5.47;3.38;;;6.00;99.90;;;;;;4857767;29;20252;-76
2021/03/14 09:06:45;;;;;;;6.93;3.75;;;6.00;99.90;;;;;;4866090;29;20238;-76
2021/03/14 09:09:20;;;;;;;4.20;3.50;;;6.00;99.90;;;;;;4851865;29;21385;-76
2021/03/14 09:12:13;;;;;;;3.50;3.20;;;6.00;99.90;;;;;;4864306;29;20223;-76
2021/03/14 09:14:50;;;;;;;4.15;3.58;;;6.00;99.90;;;;;;4859605;29;20242;-77
2021/03/14 09:17:25;;;;;;;4.40;3.58;;;6.00;99.90;;;;;;4857384;29;20222;-76
2021/03/14 09:20:15;;;;;;;6.22;3.03;;;6.10;99.90;;;;;;4864122;29;20198;-76
2021/03/14 09:22:42;;;;;;;6.20;3.25;;;6.10;99.90;;;;;;4873209;29;20638;-76
2021/03/14 09:25:26;;;;;;;4.55;2.70;;;6.00;99.90;;;;;;4860885;29;20354;-76
2021/03/14 09:27:54;;;;;;;3.53;2.40;;;6.00;99.90;;;;;;4877023;29;20233;-76
2021/03/14 09:30:39;;;;;;;3.25;2.38;;;5.90;99.90;;;;;;4872557;29;20242;-76
2021/03/14 09:33:08;;;;;;;2.95;2.47;;;5.90;99.90;;;;;;4879458;29;20218;-75
2021/03/14 09:35:53;;;;;;;2.80;2.38;;;5.90;99.90;;;;;;4863812;29;20702;-76
2021/03/14 09:38:26;;;;;;;3.33;2.10;;;5.90;99.90;;;;;;4862100;29;20242;-76
2021/03/14 09:41:01;;;;;;;5.03;2.28;;;5.80;99.90;;;;;;4875205;29;20186;-76
2021/03/14 09:43:29;;;;;;;4.65;2.50;;;5.80;99.90;;;;;;4852350;29;20669;-76
2021/03/14 09:46:17;;;;;;;4.05;1.73;;;5.90;99.90;;;;;;4867283;29;20645;-76
2021/03/14 09:49:11;;;;;;;3.17;1.90;;;5.90;99.90;;;;;;4873303;29;20223;-76
2021/03/14 09:51:40;;;;;;;2.35;2.00;;;5.90;99.90;;;;;;4850688;29;20258;-76
2021/03/14 09:54:11;;;;;;;2.22;2.00;;;6.00;99.90;;;;;;4872942;29;20210;-76
2021/03/14 09:56:40;;;;;;;3.30;2.35;;;6.00;99.90;;;;;;4876204;29;20226;-76
2021/03/14 09:59:26;;;;;;;2.50;1.65;;;6.00;99.90;;;;;;4848601;29;20198;-76
2021/03/14 10:02:10;;;;;;;2.00;1.80;;;6.10;99.90;;;;;;4859524;29;20235;-76
2021/03/14 10:04:49;;;;;;;1.67;1.58;;;6.10;99.90;;;;;;4862340;29;20233;-76
2021/03/14 10:07:24;;;;;;;1.75;1.65;;;6.10;99.90;;;;;;4859774;29;20271;-76
2021/03/14 10:09:51;;;;;;;2.65;1.45;;;6.10;99.90;;;;;;4870388;29;20312;-76
2021/03/14 10:12:34;;;;;;;2.80;1.50;;;6.10;99.90;;;;;;4861595;29;20697;-76
2021/03/14 10:15:03;;;;;;;1.90;1.60;;;6.10;99.90;;;;;;4858496;29;20218;-76
2021/03/14 10:17:31;;;;;;;1.60;1.40;;;6.20;99.90;;;;;;4873404;29;20214;-76
2021/03/14 10:19:58;;;;;;;2.60;1.80;;;6.10;99.90;;;;;;4876907;29;20186;-76
2021/03/14 10:22:33;;;;;;;4.35;2.53;;;6.10;99.90;;;;;;4864402;29;20283;-76
2021/03/14 10:25:27;;;;;;;2.67;2.47;;;6.10;99.90;;;;;;4865143;29;20227;-76
2021/03/14 10:28:23;;;;;;;2.90;2.05;;;6.10;99.90;;;;;;4837319;29;20230;-77
2021/03/14 10:31:14;;;;;;;3.10;2.25;;;6.00;99.90;;;;;;4856747;29;20243;-77
2021/03/14 10:33:46;;;;;;;6.55;3.33;;;6.10;99.90;;;;;;4866848;29;20297;-77
2021/03/14 10:36:17;;;;;;;2.35;2.15;;;6.20;99.90;;;;;;4870286;29;20218;-77
2021/03/14 10:39:00;;;;;;;3.70;2.55;;;6.10;99.90;;;;;;4859352;29;20674;-77
2021/03/14 10:41:42;;;;;;;2.60;2.33;;;6.20;99.90;;;;;;4875197;29;20186;-77
2021/03/14 10:44:11;;;;;;;3.88;2.90;;;6.20;99.90;;;;;;4875210;29;20230;-76
2021/03/14 10:46:51;;;;;;;2.90;2.67;;;6.20;99.90;;;;;;4860246;29;20262;-76
2021/03/14 10:49:28;;;;;;;2.55;2.35;;;6.20;99.90;;;;;;4860785;29;20305;-76
2021/03/14 10:52:00;;;;;;;4.13;3.15;;;6.20;99.90;;;;;;4871208;29;20219;-76
2021/03/14 10:54:35;;;;;;;4.25;3.85;;;6.20;99.90;;;;;;4862374;29;20241;-76
2021/03/14 10:57:15;;;;;;;3.75;3.35;;;6.20;99.90;;;;;;4867708;29;20295;-76
2021/03/14 10:59:49;;;;;;;4.90;3.20;;;6.20;99.90;;;;;;4861922;29;20609;-76
2021/03/14 11:02:35;;;;;;;4.00;3.25;;;6.30;99.90;;;;;;4865329;29;20246;-76
2021/03/14 11:05:07;;;;;;;3.60;2.88;;;6.30;99.90;;;;;;4863291;29;20229;-76
2021/03/14 11:07:40;;;;;;;4.20;3.80;;;6.40;99.90;;;;;;4860392;29;20567;-76
2021/03/14 11:10:27;;;;;;;5.25;4.05;;;6.50;99.90;;;;;;4853711;29;20692;-76
2021/03/14 11:13:15;;;;;;;5.10;4.13;;;6.50;99.90;;;;;;4867902;29;20226;-76
2021/03/14 11:16:09;;;;;;;4.55;4.13;;;6.60;99.90;;;;;;4875010;29;20274;-76
2021/03/14 11:18:55;;;;;;;5.20;4.60;;;6.60;99.90;;;;;;4879183;29;20250;-76
2021/03/14 11:21:30;;;;;;;5.05;4.30;;;6.60;99.90;;;;;;4851151;29;20194;-76
2021/03/14 11:23:57;;;;;;;6.40;3.88;;;6.70;99.90;;;;;;4871769;29;20231;-76
2021/03/14 11:26:39;;;;;;;7.85;6.78;;;6.70;99.90;;;;;;4861616;29;20199;-76
2021/03/14 11:29:08;;;;;;;6.22;4.40;;;6.70;99.90;;;;;;4877501;29;20215;-76
2021/03/14 11:31:57;;;;;;;4.68;4.30;;;6.90;99.90;;;;;;4863022;29;20226;-76
2021/03/14 11:34:26;;;;;;;5.00;4.35;;;7.00;99.90;;;;;;4867991;29;20216;-76
2021/03/14 11:37:14;;;;;;;5.80;4.80;;;7.10;99.90;;;;;;4848947;29;20601;-76
2021/03/14 11:39:59;;;;;;;4.95;4.47;;;7.20;99.90;;;;;;4852918;29;20219;-76
2021/03/14 11:42:38;;;;;;;7.22;5.72;;;7.30;99.90;;;;;;4865666;29;20221;-76
2021/03/14 11:45:17;;;;;;;7.35;5.70;;;7.40;99.90;;;;;;4861608;29;20226;-76
2021/03/14 11:47:44;;;;;;;8.75;5.38;;;7.50;99.90;;;;;;4860016;29;20215;-76
2021/03/14 11:50:37;;;;;;;12.90;5.18;;;7.50;99.90;;;;;;4865617;29;20585;-76
2021/03/14 11:53:05;;;;;;;7.43;5.25;;;7.50;99.90;;;;;;4874823;29;20222;-76
2021/03/14 11:55:38;;;;;;;5.68;4.93;;;7.60;99.90;;;;;;4873181;29;20677;-76
2021/03/14 11:58:06;;;;;;;5.88;5.30;;;7.70;99.90;;;;;;4865788;29;20327;-76
2021/03/14 12:00:33;;;;;;;7.90;5.18;;;7.80;99.90;;;;;;4878688;29;20421;-76
2021/03/14 12:02:59;;;;;;;5.47;5.00;;;7.80;99.90;;;;;;4863767;29;20275;-76
2021/03/14 12:05:42;;;;;;;5.35;4.85;;;7.90;99.90;;;;;;4857522;29;20218;-75
2021/03/14 12:08:28;;;;;;;5.80;4.22;;;8.10;99.90;;;;;;4863611;29;20218;-76
2021/03/14 12:10:55;;;;;;;7.20;4.78;;;8.10;99.90;;;;;;4877478;29;20729;-75
2021/03/14 12:13:29;;;;;;;6.88;5.75;;;8.10;99.90;;;;;;4851177;29;20278;-76
2021/03/14 12:15:57;;;;;;;5.35;4.85;;;8.10;99.90;;;;;;4859925;29;20684;-75
2021/03/14 12:18:24;;;;;;;6.57;5.10;;;8.00;99.90;;;;;;4852773;29;20302;-75
2021/03/14 12:20:55;;;;;;;5.63;5.07;;;7.80;99.90;;;;;;4877149;29;20195;-76
2021/03/14 12:23:29;;;;;;;18.80;6.05;;;7.80;99.90;;;;;;4876348;29;20226;-76
2021/03/14 12:26:08;;;;;;;9.35;5.60;;;7.70;99.90;;;;;;4870425;29;20195;-76
2021/03/14 12:28:41;;;;;;;4.70;4.30;;;7.70;99.90;;;;;;4853634;29;20658;-76
2021/03/14 12:31:08;;;;;;;6.65;5.20;;;7.80;99.90;;;;;;4863305;29;20195;-75
2021/03/14 12:33:37;;;;;;;6.53;4.55;;;7.70;99.90;;;;;;4859224;29;20318;-76
2021/03/14 12:36:04;;;;;;;4.55;4.05;;;7.70;99.90;;;;;;4868245;29;20683;-76
2021/03/14 12:38:53;;;;;;;6.38;4.60;;;7.60;99.90;;;;;;4870956;29;20298;-76
2021/03/14 12:41:20;;;;;;;4.85;4.35;;;7.50;99.90;;;;;;4859766;29;20200;-76
2021/03/14 12:43:46;;;;;;;5.20;4.10;;;7.50;99.90;;;;;;4872508;29;20648;-76
2021/03/14 12:46:14;;;;;;;5.80;4.25;;;7.60;99.90;;;;;;4878204;29;20338;-76
2021/03/14 12:48:40;;;;;;;6.63;5.53;;;7.60;99.90;;;;;;4879076;29;20286;-76
2021/03/14 12:51:10;;;;;;;10.07;4.18;;;7.60;99.90;;;;;;4871305;29;20670;-76
2021/03/14 12:53:39;;;;;;;4.70;3.35;;;7.60;99.90;;;;;;4843786;29;20223;-75
2021/03/14 12:56:12;;;;;;;5.05;3.55;;;7.60;99.90;;;;;;4872869;29;20189;-76
2021/03/14 12:59:00;;;;;;;3.70;3.40;;;7.60;99.90;;;;;;4861950;29;20227;-76
2021/03/14 13:01:33;;;;;;;4.05;3.58;;;7.60;99.90;;;;;;4858725;29;20195;-76
2021/03/14 13:04:00;;;;;;;3.50;3.17;;;7.70;99.90;;;;;;4872469;29;20235;-76
2021/03/14 13:06:28;;;;;;;4.93;3.53;;;7.70;99.90;;;;;;4866707;29;20242;-76
2021/03/14 13:08:55;;;;;;;6.78;3.63;;;7.70;99.90;;;;;;4844525;29;20232;-76
2021/03/14 13:11:22;;;;;;;4.03;3.50;;;7.60;99.90;;;;;;4863075;29;20183;-76
2021/03/14 13:13:49;;;;;;;5.53;4.22;;;7.60;99.90;;;;;;4869048;29;20214;-76
2021/03/14 13:16:16;;;;;;;3.85;3.35;;;7.50;99.90;;;;;;4877211;29;20183;-76
2021/03/14 13:18:43;;;;;;;4.07;3.72;;;7.40;99.90;;;;;;4876657;29;20773;-76
2021/03/14 13:21:09;;;;;;;6.93;3.85;;;7.50;99.90;;;;;;4872036;29;20198;-76
2021/03/14 13:23:36;;;;;;;4.60;2.95;;;7.50;99.90;;;;;;4865364;29;20227;-76